createdAt,value
2023-03-05T00:00:52.154Z,2.75
2023-03-05T00:03:18.951Z,2.47
2023-03-05T00:05:52.553Z,3.00
2023-03-05T00:08:19.359Z,2.20
2023-03-05T00:10:46.122Z,3.00
2023-03-05T00:13:26.401Z,2.85
2023-03-05T00:15:54.128Z,2.92
2023-03-05T00:18:28.429Z,2.95
2023-03-05T00:20:55.284Z,2.60
2023-03-05T00:23:22.192Z,2.38
2023-03-05T00:25:55.410Z,2.13
2023-03-05T00:28:22.438Z,2.25
2023-03-05T00:30:49.277Z,2.20
2023-03-05T00:33:22.577Z,3.10
2023-03-05T00:35:49.345Z,3.15
2023-03-05T00:38:16.109Z,3.13
2023-03-05T00:40:49.451Z,3.08
2023-03-05T00:43:16.412Z,2.67
2023-03-05T00:45:43.183Z,2.50
2023-03-05T00:48:16.464Z,2.30
2023-03-05T00:50:43.257Z,2.95
2023-03-05T00:53:12.271Z,2.20
2023-03-05T00:55:45.452Z,2.30
2023-03-05T00:58:15.557Z,2.67
2023-03-05T01:00:42.340Z,2.92
2023-03-05T01:03:26.510Z,2.78
2023-03-05T01:06:01.149Z,2.67
2023-03-05T01:08:34.521Z,2.85
2023-03-05T01:11:01.693Z,2.90
2023-03-05T01:13:28.468Z,2.63
2023-03-05T01:16:01.642Z,2.78
2023-03-05T01:18:28.773Z,2.40
2023-03-05T01:20:55.752Z,2.55
2023-03-05T01:23:29.542Z,2.30
2023-03-05T01:25:58.345Z,2.38
2023-03-05T01:28:25.735Z,2.13
2023-03-05T01:30:59.499Z,1.90
2023-03-05T01:33:32.690Z,2.15
2023-03-05T01:35:59.550Z,1.70
2023-03-05T01:38:32.503Z,2.22
2023-03-05T01:40:59.411Z,2.38
2023-03-05T01:43:41.516Z,2.38
2023-03-05T01:46:43.682Z,2.30
2023-03-05T01:49:34.572Z,1.60
2023-03-05T01:52:04.240Z,1.80
2023-03-05T01:54:54.846Z,1.67
2023-03-05T01:57:23.715Z,1.95
2023-03-05T02:00:02.644Z,1.48
2023-03-05T02:02:35.772Z,2.03
2023-03-05T02:05:16.578Z,1.83
2023-03-05T02:07:45.867Z,1.95
2023-03-05T02:10:27.656Z,1.58
2023-03-05T02:12:58.764Z,1.50
2023-03-05T02:15:25.719Z,1.77
2023-03-05T02:17:59.604Z,1.75
2023-03-05T02:20:36.905Z,2.20
2023-03-05T02:23:03.682Z,1.80
2023-03-05T02:25:30.457Z,1.77
2023-03-05T02:28:10.576Z,1.92
2023-03-05T02:30:38.531Z,1.95
2023-03-05T02:33:17.573Z,1.80
2023-03-05T02:35:46.220Z,1.77
2023-03-05T02:38:15.429Z,1.75
2023-03-05T02:40:48.601Z,1.85
2023-03-05T02:43:15.382Z,1.85
2023-03-05T02:45:42.271Z,1.35
2023-03-05T02:48:15.621Z,1.58
2023-03-05T02:50:42.878Z,1.30
2023-03-05T02:53:16.675Z,1.50
2023-03-05T02:55:47.629Z,1.15
2023-03-05T02:58:14.922Z,1.10
2023-03-05T03:00:48.654Z,1.30
2023-03-05T03:03:22.439Z,0.98
2023-03-05T03:05:56.691Z,0.80
2023-03-05T03:08:23.568Z,0.90
2023-03-05T03:10:50.497Z,1.00
2023-03-05T03:13:23.643Z,1.08
2023-03-05T03:16:06.794Z,0.88
2023-03-05T03:18:39.638Z,0.77
2023-03-05T03:21:13.694Z,0.82
2023-03-05T03:23:40.466Z,0.80
2023-03-05T03:26:07.204Z,0.80
2023-03-05T03:28:40.661Z,1.05
2023-03-05T03:31:08.068Z,0.82
2023-03-05T03:33:41.692Z,1.20
2023-03-05T03:36:13.100Z,0.93
2023-03-05T03:38:39.931Z,1.10
2023-03-05T03:41:14.704Z,0.80
2023-03-05T03:43:41.466Z,0.93
2023-03-05T03:46:15.774Z,1.30
2023-03-05T03:48:42.566Z,1.10
2023-03-05T03:51:15.768Z,1.15
2023-03-05T03:53:42.595Z,1.40
2023-03-05T03:56:15.738Z,1.30
2023-03-05T03:58:42.489Z,1.20
2023-03-05T04:01:15.726Z,1.20
2023-03-05T04:03:42.476Z,1.60
2023-03-05T04:06:15.756Z,1.38
2023-03-05T04:08:42.775Z,1.33
2023-03-05T04:11:16.754Z,1.88
2023-03-05T04:13:43.554Z,1.85
2023-03-05T04:16:16.805Z,1.70
2023-03-05T04:18:43.685Z,1.33
2023-03-05T04:21:10.943Z,1.50
2023-03-05T04:23:44.814Z,1.48
2023-03-05T04:26:11.563Z,1.27
2023-03-05T04:28:44.762Z,1.20
2023-03-05T04:31:11.596Z,1.33
2023-03-05T04:33:44.799Z,1.40
2023-03-05T04:36:11.700Z,1.65
2023-03-05T04:38:44.802Z,1.35
2023-03-05T04:41:11.631Z,1.52
2023-03-05T04:43:44.808Z,1.30
2023-03-05T04:46:11.612Z,1.52
2023-03-05T04:48:38.651Z,1.30
2023-03-05T04:51:11.820Z,1.42
2023-03-05T04:53:38.621Z,1.38
2023-03-05T04:56:11.853Z,1.20
2023-03-05T04:58:38.875Z,1.27
2023-03-05T05:01:13.855Z,1.40
2023-03-05T05:03:40.891Z,1.20
2023-03-05T05:06:14.819Z,1.00
2023-03-05T05:08:41.705Z,1.20
2023-03-05T05:11:14.818Z,1.35
2023-03-05T05:13:41.723Z,1.00
2023-03-05T05:16:15.865Z,1.00
2023-03-05T05:18:42.664Z,0.98
2023-03-05T05:21:17.845Z,0.80
2023-03-05T05:23:44.838Z,0.90
2023-03-05T05:26:22.977Z,0.90
2023-03-05T05:28:49.788Z,0.80
2023-03-05T05:31:24.929Z,1.10
2023-03-05T05:33:58.913Z,1.00
2023-03-05T05:36:32.238Z,0.90
2023-03-05T05:39:05.891Z,0.93
2023-03-05T05:41:38.874Z,1.13
2023-03-05T05:44:05.682Z,0.80
2023-03-05T05:46:38.881Z,0.90
2023-03-05T05:49:12.518Z,0.98
2023-03-05T05:51:45.884Z,0.90
2023-03-05T05:54:20.940Z,1.00
2023-03-05T05:56:53.969Z,1.27
2023-03-05T05:59:20.818Z,1.13
2023-03-05T06:01:53.956Z,0.80
2023-03-05T06:04:20.885Z,0.60
2023-03-05T06:06:47.716Z,0.80
2023-03-05T06:09:20.939Z,0.70
2023-03-05T06:11:47.692Z,1.08
2023-03-05T06:14:20.984Z,0.90
2023-03-05T06:16:47.797Z,0.80
2023-03-05T06:19:21.969Z,0.70
2023-03-05T06:21:48.811Z,0.73
2023-03-05T06:24:21.957Z,0.80
2023-03-05T06:26:49.205Z,0.95
2023-03-05T06:29:22.970Z,1.00
2023-03-05T06:31:49.738Z,0.80
2023-03-05T06:34:22.968Z,1.10
2023-03-05T06:36:49.988Z,0.70
2023-03-05T06:39:23.977Z,0.90
2023-03-05T06:41:52.065Z,0.80
2023-03-05T06:44:25.975Z,1.00
2023-03-05T06:46:52.746Z,1.20
2023-03-05T06:49:25.975Z,1.15
2023-03-05T06:51:52.763Z,0.95
2023-03-05T06:54:19.630Z,1.65
2023-03-05T06:56:54.006Z,0.93
2023-03-05T06:59:21.678Z,1.08
2023-03-05T07:01:55.988Z,1.30
2023-03-05T07:04:24.345Z,1.08
2023-03-05T07:06:58.022Z,1.23
2023-03-05T07:09:24.883Z,1.05
2023-03-05T07:12:05.045Z,1.00
2023-03-05T07:14:38.098Z,1.00
2023-03-05T07:17:15.117Z,1.10
2023-03-05T07:19:42.197Z,1.20
2023-03-05T07:22:16.051Z,1.00
2023-03-05T07:24:42.840Z,1.10
2023-03-05T07:27:25.074Z,1.10
2023-03-05T07:29:51.936Z,1.70
2023-03-05T07:32:25.088Z,1.73
2023-03-05T07:34:51.847Z,1.80
2023-03-05T07:37:25.129Z,2.05
2023-03-05T07:39:51.881Z,1.58
2023-03-05T07:42:25.125Z,1.40
2023-03-05T07:44:51.976Z,1.40
2023-03-05T07:47:25.071Z,1.27
2023-03-05T07:49:52.546Z,1.35
2023-03-05T07:52:30.085Z,2.00
2023-03-05T07:54:56.863Z,1.20
2023-03-05T07:57:34.118Z,1.30
2023-03-05T08:00:00.975Z,1.48
2023-03-05T08:02:34.499Z,1.27
2023-03-05T08:05:01.368Z,1.60
2023-03-05T08:07:29.081Z,2.17
2023-03-05T08:10:02.091Z,2.00
2023-03-05T08:12:30.040Z,1.63
2023-03-05T08:15:04.157Z,1.73
2023-03-05T08:17:30.910Z,2.92
2023-03-05T08:20:00.120Z,3.05
2023-03-05T08:22:34.110Z,2.90
2023-03-05T08:25:08.151Z,3.20
2023-03-05T08:27:39.269Z,2.83
2023-03-05T08:30:07.346Z,3.10
2023-03-05T08:32:48.148Z,3.08
2023-03-05T08:35:28.186Z,3.03
2023-03-05T08:37:55.241Z,2.92
2023-03-05T08:40:28.136Z,2.33
2023-03-05T08:43:01.422Z,2.30
2023-03-05T08:45:42.166Z,1.92
2023-03-05T08:48:09.264Z,2.08
2023-03-05T08:50:43.204Z,2.00
2023-03-05T08:53:16.694Z,1.90
2023-03-05T08:55:50.222Z,2.08
2023-03-05T08:58:17.006Z,2.47
2023-03-05T09:00:50.216Z,2.60
2023-03-05T09:03:17.729Z,2.13
2023-03-05T09:05:51.221Z,1.92
2023-03-05T09:08:24.222Z,1.67
2023-03-05T09:10:57.238Z,2.10
2023-03-05T09:13:24.189Z,1.70
2023-03-05T09:16:06.244Z,1.67
2023-03-05T09:18:33.519Z,1.60
2023-03-05T09:21:12.192Z,1.73
2023-03-05T09:23:46.252Z,1.65
2023-03-05T09:26:22.255Z,1.50
2023-03-05T09:28:49.055Z,1.65
2023-03-05T09:31:22.281Z,1.80
2023-03-05T09:33:49.924Z,1.40
2023-03-05T09:36:30.334Z,2.13
2023-03-05T09:39:01.531Z,1.50
2023-03-05T09:41:37.303Z,1.52
2023-03-05T09:44:19.770Z,1.20
2023-03-05T09:46:57.254Z,0.70
2023-03-05T09:49:49.863Z,1.02
2023-03-05T09:52:41.260Z,0.98
2023-03-05T09:55:40.919Z,1.00
2023-03-05T09:58:42.274Z,1.08
2023-03-05T10:01:16.493Z,0.90
2023-03-05T10:03:59.275Z,1.25
2023-03-05T10:06:37.733Z,1.00
2023-03-05T10:09:21.294Z,0.95
2023-03-05T10:12:05.681Z,0.85
2023-03-05T10:14:42.365Z,0.95
2023-03-05T10:17:29.080Z,1.02
2023-03-05T10:20:31.324Z,1.58
2023-03-05T10:23:31.358Z,1.00
2023-03-05T10:26:39.777Z,1.00
2023-03-05T10:29:50.357Z,0.80
2023-03-05T10:32:46.797Z,1.20
2023-03-05T10:36:10.339Z,1.67
2023-03-05T10:38:40.176Z,0.80
2023-03-05T10:41:35.344Z,1.10
2023-03-05T10:44:41.203Z,1.00
2023-03-05T10:47:51.391Z,0.95
2023-03-05T10:50:40.355Z,1.10
2023-03-05T10:53:10.156Z,1.20
2023-03-05T10:55:43.429Z,1.50
2023-03-05T10:58:23.683Z,1.70
2023-03-05T11:01:30.596Z,1.80
2023-03-05T11:04:25.003Z,1.73
2023-03-05T11:06:58.380Z,2.00
2023-03-05T11:09:32.291Z,2.05
2023-03-05T11:12:20.408Z,2.47
2023-03-05T11:15:04.174Z,2.88
2023-03-05T11:17:44.508Z,3.20
2023-03-05T11:20:23.650Z,2.80
2023-03-05T11:23:31.550Z,2.45
2023-03-05T11:26:01.137Z,2.38
2023-03-05T11:28:43.556Z,2.80
2023-03-05T11:31:16.330Z,2.90
2023-03-05T11:34:08.431Z,2.40
2023-03-05T11:37:04.411Z,2.13
2023-03-05T11:39:34.723Z,2.33
2023-03-05T11:42:31.726Z,1.95
2023-03-05T11:44:58.980Z,1.58
2023-03-05T11:47:38.584Z,1.50
2023-03-05T11:50:16.251Z,1.98
2023-03-05T11:53:06.458Z,2.00
2023-03-05T11:55:59.555Z,1.50
2023-03-05T11:58:52.346Z,1.70
2023-03-05T12:03:53.614Z,1.60
2023-03-05T12:06:26.406Z,1.50
2023-03-05T12:09:03.501Z,1.00
2023-03-05T12:11:35.966Z,0.90
2023-03-05T12:14:31.475Z,1.10
2023-03-05T12:17:04.329Z,1.00
2023-03-05T12:19:47.647Z,0.90
2023-03-05T12:22:23.954Z,1.00
2023-03-05T12:25:40.525Z,0.85
2023-03-05T12:28:46.517Z,1.05
2023-03-05T12:31:44.611Z,1.20
2023-03-05T12:34:40.745Z,1.02
2023-03-05T12:37:21.551Z,1.00
2023-03-05T12:39:52.537Z,1.45
2023-03-05T12:42:34.591Z,1.15
2023-03-05T12:45:11.710Z,0.75
2023-03-05T12:48:23.890Z,1.00
2023-03-05T12:50:52.701Z,1.00
2023-03-05T12:53:20.972Z,0.90
2023-03-05T12:56:07.001Z,1.15
2023-03-05T12:58:44.167Z,1.00
2023-03-05T13:01:17.749Z,1.10
2023-03-05T13:03:50.153Z,1.63
2023-03-05T13:06:41.722Z,1.80
2023-03-05T13:09:17.396Z,1.50
2023-03-05T13:11:55.903Z,1.90
2023-03-05T13:14:31.854Z,2.00
2023-03-05T13:17:09.592Z,1.83
2023-03-05T13:19:36.472Z,1.80
2023-03-05T13:22:18.595Z,2.03
2023-03-05T13:24:46.942Z,2.20
2023-03-05T13:27:46.621Z,1.85
2023-03-05T13:30:28.394Z,2.17
2023-03-05T13:33:09.887Z,1.45
2023-03-05T13:35:46.160Z,1.60
2023-03-05T13:38:39.621Z,1.70
2023-03-05T13:41:15.876Z,1.80
2023-03-05T13:44:03.625Z,1.60
2023-03-05T13:46:35.933Z,1.60
2023-03-05T13:52:00.016Z,1.70
2023-03-05T13:54:34.623Z,1.13
2023-03-05T13:57:07.710Z,1.80
2023-03-05T13:59:47.911Z,1.20
2023-03-05T14:02:20.540Z,0.90
2023-03-05T14:04:55.042Z,0.80
2023-03-05T14:07:41.515Z,1.00
2023-03-05T14:10:36.677Z,0.75
2023-03-05T14:13:24.638Z,0.90
2023-03-05T14:16:29.705Z,0.90
2023-03-05T14:19:09.142Z,0.90
2023-03-05T14:21:55.015Z,1.50
2023-03-05T14:24:26.976Z,1.05
2023-03-05T14:27:02.710Z,1.08
2023-03-05T14:29:29.735Z,0.90
2023-03-05T14:32:13.050Z,0.65
2023-03-05T14:34:41.784Z,0.90
2023-03-05T14:37:29.740Z,0.90
2023-03-05T14:39:59.566Z,1.00
2023-03-05T14:42:39.013Z,1.00
2023-03-05T14:45:19.145Z,0.70
2023-03-05T14:47:53.760Z,0.63
2023-03-05T14:50:22.073Z,0.50
2023-03-05T14:52:51.259Z,0.77
2023-03-05T14:55:27.903Z,0.60
2023-03-05T14:58:01.315Z,0.90
2023-03-05T15:00:36.051Z,0.50
2023-03-05T15:03:04.220Z,0.60
2023-03-05T15:05:31.313Z,0.55
2023-03-05T15:08:06.154Z,0.40
2023-03-05T15:10:32.968Z,0.65
2023-03-05T15:13:04.945Z,0.70
2023-03-05T15:15:39.109Z,0.63
2023-03-05T15:18:06.209Z,0.90
2023-03-05T15:20:33.714Z,0.70
2023-03-05T15:23:07.117Z,0.80
2023-03-05T15:25:34.010Z,0.85
2023-03-05T15:28:01.360Z,0.93
2023-03-05T15:30:42.802Z,0.52
2023-03-05T15:33:18.864Z,0.63
2023-03-05T15:35:45.785Z,0.80
2023-03-05T15:38:20.822Z,0.50
2023-03-05T15:40:47.995Z,0.60
2023-03-05T15:43:21.833Z,1.30
2023-03-05T15:45:54.913Z,0.82
2023-03-05T15:48:28.814Z,1.55
2023-03-05T15:50:58.871Z,0.95
2023-03-05T15:53:31.826Z,0.65
2023-03-05T15:55:58.676Z,0.88
2023-03-05T15:58:31.846Z,1.10
2023-03-05T16:00:59.602Z,1.00
2023-03-05T16:03:33.848Z,1.25
2023-03-05T16:06:00.687Z,1.02
2023-03-05T16:08:34.847Z,0.80
2023-03-05T16:11:01.855Z,1.00
2023-03-05T16:13:36.914Z,1.50
2023-03-05T16:16:06.533Z,1.40
2023-03-05T16:18:42.868Z,1.10
2023-03-05T16:21:10.587Z,1.40
2023-03-05T16:23:43.912Z,1.00
2023-03-05T16:26:10.830Z,0.70
2023-03-05T16:28:46.977Z,0.88
2023-03-05T16:31:13.758Z,0.80
2023-03-05T16:33:40.851Z,1.00
2023-03-05T16:36:17.913Z,0.95
2023-03-05T16:38:44.771Z,0.93
2023-03-05T16:41:23.276Z,0.80
2023-03-05T16:43:53.506Z,1.20
2023-03-05T16:46:26.950Z,0.88
2023-03-05T16:48:54.137Z,1.63
2023-03-05T16:51:28.006Z,1.40
2023-03-05T16:53:55.850Z,1.67
2023-03-05T16:56:29.917Z,1.13
2023-03-05T16:58:56.829Z,1.80
2023-03-05T17:01:31.269Z,1.65
2023-03-05T17:03:59.257Z,1.67
2023-03-05T17:06:35.935Z,1.48
2023-03-05T17:09:03.853Z,1.08
2023-03-05T17:11:38.004Z,1.00
2023-03-05T17:14:10.934Z,1.00
2023-03-05T17:16:44.029Z,1.20
2023-03-05T17:19:11.177Z,1.20
2023-03-05T17:21:45.024Z,1.30
2023-03-05T17:24:12.379Z,1.02
2023-03-05T17:26:46.082Z,1.23
2023-03-05T17:29:13.126Z,1.40
2023-03-05T17:31:47.089Z,1.95
2023-03-05T17:34:14.541Z,1.40
2023-03-05T17:36:48.092Z,1.40
2023-03-05T17:39:14.962Z,1.75
2023-03-05T17:41:41.846Z,1.65
2023-03-05T17:44:15.029Z,1.20
2023-03-05T17:46:41.839Z,1.40
2023-03-05T17:49:14.991Z,1.70
2023-03-05T17:51:43.057Z,1.40
2023-03-05T17:54:16.033Z,1.58
2023-03-05T17:56:42.808Z,1.40
2023-03-05T17:59:16.049Z,1.38
2023-03-05T18:01:43.035Z,1.42
2023-03-05T18:04:18.063Z,1.30
2023-03-05T18:06:45.362Z,1.70
2023-03-05T18:09:19.058Z,1.70
2023-03-05T18:11:45.892Z,1.42
2023-03-05T18:14:19.038Z,1.70
2023-03-05T18:16:48.471Z,1.40
2023-03-05T18:19:22.028Z,1.63
2023-03-05T18:21:54.271Z,1.77
2023-03-05T18:24:30.074Z,2.25
2023-03-05T18:26:56.838Z,2.10
2023-03-05T18:29:30.363Z,2.10
2023-03-05T18:31:57.932Z,2.30
2023-03-05T18:34:38.036Z,2.13
2023-03-05T18:37:05.257Z,2.38
2023-03-05T18:39:35.611Z,3.67
2023-03-05T18:42:09.102Z,4.72
2023-03-05T18:44:35.888Z,4.03
2023-03-05T18:47:11.187Z,3.78
2023-03-05T18:49:38.000Z,3.50
2023-03-05T18:52:05.006Z,3.40
2023-03-05T18:54:40.194Z,3.08
2023-03-05T18:57:06.979Z,2.85
2023-03-05T18:59:33.739Z,2.58
2023-03-05T19:02:07.169Z,2.75
2023-03-05T19:04:33.972Z,2.38
2023-03-05T19:07:07.184Z,2.47
2023-03-05T19:09:59.839Z,2.53
2023-03-05T19:12:38.160Z,2.13
2023-03-05T19:15:06.010Z,2.58
2023-03-05T19:17:40.176Z,2.45
2023-03-05T19:20:07.850Z,2.83
2023-03-05T19:22:36.258Z,2.80
2023-03-05T19:25:10.148Z,2.60
2023-03-05T19:27:37.705Z,2.20
2023-03-05T19:30:13.148Z,2.05
2023-03-05T19:32:47.251Z,2.15
2023-03-05T19:35:16.329Z,2.20
2023-03-05T19:37:45.860Z,2.00
2023-03-05T19:40:21.499Z,2.30
2023-03-05T19:42:48.339Z,1.92
2023-03-05T19:45:20.195Z,2.22
2023-03-05T19:47:53.232Z,2.25
2023-03-05T19:50:20.133Z,2.10
2023-03-05T19:52:53.455Z,2.00
2023-03-05T19:55:20.586Z,2.15
2023-03-05T19:57:51.917Z,2.20
2023-03-05T20:00:26.318Z,2.17
2023-03-05T20:02:57.723Z,2.47
2023-03-05T20:05:32.322Z,2.55
2023-03-05T20:07:59.191Z,2.40
2023-03-05T20:10:26.151Z,2.30
2023-03-05T20:12:59.230Z,2.35
2023-03-05T20:15:29.227Z,2.28
2023-03-05T20:17:57.655Z,2.28
2023-03-05T20:20:31.283Z,2.22
2023-03-05T20:23:04.266Z,2.30
2023-03-05T20:25:31.156Z,2.30
2023-03-05T20:28:04.581Z,1.80
2023-03-05T20:30:31.418Z,2.00
2023-03-05T20:32:58.247Z,1.83
2023-03-05T20:35:31.292Z,1.98
2023-03-05T20:38:20.795Z,1.45
2023-03-05T20:40:56.311Z,1.75
2023-03-05T20:43:24.269Z,1.95
2023-03-05T20:45:53.054Z,1.52
2023-03-05T20:48:27.322Z,1.38
2023-03-05T20:50:54.365Z,1.60
2023-03-05T20:53:21.814Z,1.77
2023-03-05T20:55:55.347Z,2.08
2023-03-05T20:58:22.157Z,1.50
2023-03-05T21:00:49.145Z,1.60
2023-03-05T21:03:27.368Z,1.50
2023-03-05T21:05:56.516Z,1.80
2023-03-05T21:08:30.360Z,2.05
2023-03-05T21:11:05.388Z,2.35
2023-03-05T21:13:32.501Z,2.33
2023-03-05T21:16:05.401Z,2.50
2023-03-05T21:18:32.377Z,2.05
2023-03-05T21:21:05.353Z,2.40
2023-03-05T21:23:32.454Z,2.00
2023-03-05T21:26:06.368Z,1.90
2023-03-05T21:28:40.329Z,1.90
2023-03-05T21:31:10.945Z,2.03
2023-03-05T21:33:38.354Z,2.25
2023-03-05T21:36:12.312Z,2.40
2023-03-05T21:38:46.662Z,1.90
2023-03-05T21:41:14.107Z,2.00
2023-03-05T21:43:41.041Z,2.00
2023-03-05T21:46:14.582Z,2.03
2023-03-05T21:48:41.368Z,2.70
2023-03-05T21:51:08.859Z,2.60
2023-03-05T21:53:43.418Z,2.40
2023-03-05T21:56:11.122Z,2.40
2023-03-05T21:58:37.993Z,2.35
2023-03-05T22:01:11.590Z,2.20
2023-03-05T22:03:38.920Z,2.05
2023-03-05T22:06:20.668Z,2.05
2023-03-05T22:08:52.393Z,2.13
2023-03-05T22:11:27.700Z,2.00
2023-03-05T22:13:54.517Z,2.55
2023-03-05T22:16:26.550Z,2.53
2023-03-05T22:19:00.427Z,2.03
2023-03-05T22:21:34.133Z,2.00
2023-03-05T22:24:07.698Z,2.33
2023-03-05T22:26:37.664Z,2.40
2023-03-05T22:29:05.569Z,2.40
2023-03-05T22:31:39.415Z,1.88
2023-03-05T22:34:06.324Z,2.10
2023-03-05T22:36:39.440Z,2.05
2023-03-05T22:39:14.566Z,2.20
2023-03-05T22:41:48.476Z,2.25
2023-03-05T22:44:16.347Z,2.00
2023-03-05T22:46:44.381Z,1.85
2023-03-05T22:49:17.443Z,2.20
2023-03-05T22:51:44.245Z,1.85
2023-03-05T22:54:17.471Z,2.20
2023-03-05T22:56:44.568Z,2.20
2023-03-05T22:59:17.476Z,2.50
2023-03-05T23:01:50.791Z,2.95
2023-03-05T23:04:28.894Z,3.20
2023-03-05T23:07:02.508Z,2.78
2023-03-05T23:09:36.473Z,3.20
2023-03-05T23:12:05.728Z,2.95
2023-03-05T23:14:32.533Z,2.42
2023-03-05T23:17:06.799Z,2.85
2023-03-05T23:19:39.521Z,3.05
2023-03-05T23:22:15.511Z,3.30
2023-03-05T23:24:42.388Z,3.50
2023-03-05T23:27:10.892Z,4.00
2023-03-05T23:30:00.821Z,3.92
2023-03-05T23:32:30.578Z,3.83
2023-03-05T23:34:57.424Z,4.25
2023-03-05T23:37:30.563Z,4.32
2023-03-05T23:39:57.306Z,4.43
2023-03-05T23:42:24.147Z,4.13
2023-03-05T23:45:05.554Z,4.30
2023-03-05T23:47:35.955Z,4.65
2023-03-05T23:50:05.332Z,4.80
2023-03-05T23:52:38.690Z,4.43
2023-03-05T23:55:06.174Z,5.68
2023-03-05T23:57:33.993Z,4.72
